Time;durP1;ratioP1;P1;durP2;ratioP2;P2;SDS_P1;SDS_P2;PMS_P1;PMS_P2;Temp;Humidity;BMP_temperature;BMP_pressure;BME280_temperature;BME280_humidity;BME280_pressure;Samples;Min_cycle;Max_cycle;Signal;HPM_P1;HPM_P2
2024/01/01 00:01:55;;;;;;;34.97;25.17;;;;;;;-142.06;100.00;64312.41;5055155;28;20236;-81
2024/01/01 00:04:24;;;;;;;35.90;24.43;;;;;;;-142.06;100.00;64312.41;5037784;28;20194;-80
2024/01/01 00:06:51;;;;;;;40.23;27.50;;;;;;;-142.06;100.00;64312.41;5046643;28;20751;-80
2024/01/01 00:09:18;;;;;;;50.73;35.73;;;;;;;-142.06;100.00;64312.41;5053178;28;20189;-79
2024/01/01 00:11:44;;;;;;;41.27;28.50;;;;;;;-142.06;100.00;64312.41;5052917;28;20198;-79
2024/01/01 00:14:12;;;;;;;37.47;26.43;;;;;;;-142.06;100.00;64312.41;5057379;28;20212;-79
2024/01/01 00:16:40;;;;;;;43.17;26.80;;;;;;;-142.06;100.00;64312.41;5054064;28;20720;-82
2024/01/01 00:19:08;;;;;;;41.27;27.60;;;;;;;-142.06;100.00;64312.41;5034447;28;20202;-82
2024/01/01 00:21:35;;;;;;;42.37;30.17;;;;;;;-142.06;100.00;64312.41;5050296;28;20209;-82
2024/01/01 00:24:02;;;;;;;43.47;31.70;;;;;;;-142.06;100.00;64312.41;5053686;28;20196;-80
2024/01/01 00:26:29;;;;;;;43.10;30.17;;;;;;;-142.06;100.00;64312.41;5055244;28;20247;-80
2024/01/01 00:28:59;;;;;;;42.97;29.80;;;;;;;-142.06;100.00;64312.41;5055650;28;20197;-79
2024/01/01 00:31:26;;;;;;;43.47;30.23;;;;;;;-142.06;100.00;64312.41;5053863;28;20221;-78
2024/01/01 00:33:53;;;;;;;44.20;31.67;;;;;;;-142.06;100.00;64312.41;5054282;28;20190;-79
2024/01/01 00:36:20;;;;;;;43.33;31.73;;;;;;;-142.06;100.00;64312.41;5057812;28;20241;-80
2024/01/01 00:38:47;;;;;;;28.47;19.80;;;;;;;-142.06;100.00;64312.41;5037306;28;20264;-79
2024/01/01 00:41:15;;;;;;;15.40;12.13;;;;;;;-142.06;100.00;64312.41;5033129;28;20222;-80
2024/01/01 00:43:43;;;;;;;31.50;23.20;;;;;;;-142.06;100.00;64312.41;5076693;28;20190;-81
2024/01/01 00:46:10;;;;;;;41.17;29.77;;;;;;;-142.06;100.00;64312.41;5038812;28;20202;-80
2024/01/01 00:48:37;;;;;;;27.63;20.63;;;;;;;-142.06;100.00;64312.41;5055055;28;20201;-80
2024/01/01 00:51:05;;;;;;;9.00;7.07;;;;;;;-142.06;100.00;64312.41;5037164;28;20681;-81
2024/01/01 00:53:33;;;;;;;3.77;3.37;;;;;;;-142.06;100.00;64312.41;5051913;28;20283;-78
2024/01/01 00:55:59;;;;;;;2.50;2.30;;;;;;;-142.06;100.00;64312.41;5053556;28;20263;-80
2024/01/01 00:58:26;;;;;;;2.30;2.10;;;;;;;-142.06;100.00;64312.41;5050573;28;20193;-78
2024/01/01 01:00:54;;;;;;;2.33;2.13;;;;;;;-142.06;100.00;64312.41;5052984;28;20218;-79
2024/01/01 01:03:21;;;;;;;2.10;1.47;;;;;;;-142.06;100.00;64312.41;5053131;28;20201;-80
2024/01/01 01:05:47;;;;;;;1.40;1.30;;;;;;;-142.06;100.00;64312.41;5035767;28;20198;-79
2024/01/01 01:08:14;;;;;;;1.30;1.10;;;;;;;-142.06;100.00;64312.41;5053544;28;20220;-80
2024/01/01 01:10:42;;;;;;;1.30;1.00;;;;;;;-142.06;100.00;64312.41;5053412;28;20281;-80
2024/01/01 01:13:08;;;;;;;0.77;0.70;;;;;;;-142.06;100.00;64312.41;5038448;28;20212;-79
2024/01/01 01:15:35;;;;;;;0.90;0.70;;;;;;;-142.06;100.00;64312.41;5036564;28;20212;-79
2024/01/01 01:18:02;;;;;;;1.43;0.60;;;;;;;-142.06;100.00;64312.41;5036558;28;20198;-79
2024/01/01 01:20:30;;;;;;;0.60;0.60;;;;;;;-142.06;100.00;64312.41;5052533;28;20205;-79
2024/01/01 01:22:57;;;;;;;0.80;0.43;;;;;;;-142.06;100.00;64312.41;5038886;28;20229;-79
2024/01/01 01:25:23;;;;;;;0.33;0.33;;;;;;;-142.06;100.00;64312.41;5053750;28;20194;-80
2024/01/01 01:27:50;;;;;;;0.73;0.53;;;;;;;-142.06;100.00;64312.41;5030679;28;20205;-79
2024/01/01 01:30:18;;;;;;;0.40;0.40;;;;;;;-142.06;100.00;64312.41;5053422;28;20674;-79
2024/01/01 01:32:45;;;;;;;0.40;0.40;;;;;;;-142.06;100.00;64312.41;5047895;28;20221;-79
2024/01/01 01:35:12;;;;;;;0.30;0.20;;;;;;;-142.06;100.00;64312.41;5053336;28;20257;-80
2024/01/01 01:37:38;;;;;;;0.40;0.30;;;;;;;-142.06;100.00;64312.41;5035768;28;20287;-77
2024/01/01 01:40:06;;;;;;;0.33;0.13;;;;;;;-142.06;100.00;64312.41;5051773;28;20199;-79
2024/01/01 01:42:32;;;;;;;0.70;0.30;;;;;;;-142.06;100.00;64312.41;5048179;28;20685;-80
2024/01/01 01:44:59;;;;;;;1.27;0.50;;;;;;;-142.06;100.00;64312.41;5053171;28;20189;-80
2024/01/01 01:47:26;;;;;;;1.27;0.30;;;;;;;-142.06;100.00;64312.41;5056462;28;20277;-80
2024/01/01 01:49:54;;;;;;;0.50;0.40;;;;;;;-142.06;100.00;64312.41;5036856;28;20205;-80
2024/01/01 01:52:21;;;;;;;0.60;0.40;;;;;;;-142.06;100.00;64312.41;5038558;28;20204;-79
2024/01/01 01:54:50;;;;;;;0.20;0.20;;;;;;;-142.06;100.00;64312.41;5030017;28;20197;-80
2024/01/01 01:57:17;;;;;;;0.27;0.20;;;;;;;-142.06;100.00;64312.41;5033791;28;20206;-81
2024/01/01 01:59:45;;;;;;;0.20;0.20;;;;;;;-142.06;100.00;64312.41;5032610;28;20213;-79
2024/01/01 02:02:12;;;;;;;0.40;0.37;;;;;;;-142.06;100.00;64312.41;5033465;28;20225;-78
2024/01/01 02:04:39;;;;;;;0.57;0.40;;;;;;;-142.06;100.00;64312.41;5049371;28;20685;-78
2024/01/01 02:07:06;;;;;;;0.40;0.30;;;;;;;-142.06;100.00;64312.41;5052404;28;20308;-79
2024/01/01 02:09:33;;;;;;;0.50;0.30;;;;;;;-142.06;100.00;64312.41;5052820;28;20189;-79
2024/01/01 02:12:00;;;;;;;0.20;0.20;;;;;;;-142.06;100.00;64312.41;5053716;28;20270;-79
2024/01/01 02:14:26;;;;;;;0.20;0.20;;;;;;;-142.06;100.00;64312.41;5054355;28;20201;-80
2024/01/01 02:16:53;;;;;;;0.20;0.20;;;;;;;-142.06;100.00;64312.41;5053399;28;20205;-78
2024/01/01 02:19:26;;;;;;;0.13;0.13;;;;;;;-142.06;100.00;64312.41;5049006;28;20193;-80
2024/01/01 02:21:53;;;;;;;0.30;0.20;;;;;;;-142.06;100.00;64312.41;5050473;28;20217;-84
2024/01/01 02:24:20;;;;;;;0.27;0.27;;;;;;;-142.06;100.00;64312.41;5050032;28;20193;-79
2024/01/01 02:26:48;;;;;;;0.77;0.20;;;;;;;-142.06;100.00;64312.41;5053870;28;20197;-79
2024/01/01 02:29:15;;;;;;;0.80;0.40;;;;;;;-142.06;100.00;64312.41;5051143;28;20243;-78
2024/01/01 02:31:43;;;;;;;0.47;0.30;;;;;;;-142.06;100.00;64312.41;5052150;28;20221;-79
2024/01/01 02:34:10;;;;;;;0.30;0.30;;;;;;;-142.06;100.00;64312.41;5051190;28;20194;-79
2024/01/01 02:36:41;;;;;;;0.20;0.20;;;;;;;-142.06;100.00;64312.41;5051878;28;20194;-76
2024/01/01 02:39:09;;;;;;;0.47;0.30;;;;;;;-142.06;100.00;64312.41;5053651;28;20225;-79
2024/01/01 02:41:37;;;;;;;0.50;0.20;;;;;;;-142.06;100.00;64312.41;5034530;28;20236;-80
2024/01/01 02:44:04;;;;;;;0.30;0.30;;;;;;;-142.06;100.00;64312.41;5050870;28;20661;-79
2024/01/01 02:46:31;;;;;;;0.30;0.30;;;;;;;-142.06;100.00;64312.41;5052047;28;20193;-79
2024/01/01 02:48:58;;;;;;;0.23;0.20;;;;;;;-142.06;100.00;64312.41;5050992;28;20201;-79
2024/01/01 02:51:25;;;;;;;0.30;0.30;;;;;;;-142.06;100.00;64312.41;5050398;28;20208;-81
2024/01/01 02:53:52;;;;;;;0.20;0.20;;;;;;;-142.06;100.00;64312.41;5056057;28;20185;-79
2024/01/01 02:56:21;;;;;;;0.20;0.20;;;;;;;-142.06;100.00;64312.41;5050329;28;20194;-80
2024/01/01 02:58:48;;;;;;;0.33;0.20;;;;;;;-142.06;100.00;64312.41;5052366;28;20185;-78
2024/01/01 03:01:15;;;;;;;0.20;0.20;;;;;;;-142.06;100.00;64312.41;5051410;28;20224;-81
2024/01/01 03:03:42;;;;;;;0.30;0.30;;;;;;;-142.06;100.00;64312.41;5046879;28;20577;-79
2024/01/01 03:06:09;;;;;;;0.20;0.20;;;;;;;-142.06;100.00;64312.41;5056970;28;20200;-79
2024/01/01 03:08:37;;;;;;;0.30;0.30;;;;;;;-142.06;100.00;64312.41;5014847;28;20250;-78
2024/01/01 03:11:07;;;;;;;0.43;0.20;;;;;;;-142.06;100.00;64312.41;5051562;28;20221;-79
2024/01/01 03:13:34;;;;;;;0.27;0.27;;;;;;;-142.06;100.00;64312.41;5050349;28;20237;-80
2024/01/01 03:16:01;;;;;;;0.40;0.40;;;;;;;-142.06;100.00;64312.41;5036836;28;20198;-79
2024/01/01 03:18:28;;;;;;;0.50;0.50;;;;;;;-142.06;100.00;64312.41;5043593;28;20296;-81
2024/01/01 03:20:55;;;;;;;0.63;0.50;;;;;;;-142.06;100.00;64312.41;5051645;28;20612;-82
2024/01/01 03:23:22;;;;;;;0.60;0.50;;;;;;;-142.06;100.00;64312.41;5044443;28;20228;-79
2024/01/01 03:25:49;;;;;;;0.30;0.30;;;;;;;-142.06;100.00;64312.41;5050429;28;20214;-81
2024/01/01 03:28:16;;;;;;;0.40;0.40;;;;;;;-142.06;100.00;64312.41;5055575;28;20263;-79
2024/01/01 03:30:43;;;;;;;0.37;0.37;;;;;;;-142.06;100.00;64312.41;5051588;28;20280;-78
2024/01/01 03:33:10;;;;;;;0.30;0.30;;;;;;;-142.06;100.00;64312.41;5060955;28;20205;-79
2024/01/01 03:35:37;;;;;;;0.40;0.40;;;;;;;-142.06;100.00;64312.41;5038196;28;20213;-78
2024/01/01 03:38:04;;;;;;;0.40;0.40;;;;;;;-142.06;100.00;64312.41;5053859;28;20229;-79
2024/01/01 03:40:32;;;;;;;0.40;0.40;;;;;;;-142.06;100.00;64312.41;5052821;28;20216;-79
2024/01/01 03:43:00;;;;;;;0.60;0.47;;;;;;;-142.06;100.00;64312.41;5055427;28;20213;-79
2024/01/01 03:45:27;;;;;;;0.40;0.30;;;;;;;-142.06;100.00;64312.41;5054246;28;20185;-79
2024/01/01 03:47:54;;;;;;;0.97;0.40;;;;;;;-142.06;100.00;64312.41;5051562;28;20220;-79
2024/01/01 03:50:21;;;;;;;0.50;0.30;;;;;;;-142.06;100.00;64312.41;5054099;28;20201;-79
2024/01/01 03:52:48;;;;;;;1.23;0.60;;;;;;;-142.06;100.00;64312.41;5055036;28;20205;-79
2024/01/01 03:55:15;;;;;;;0.90;0.50;;;;;;;-142.06;100.00;64312.41;5055597;28;20673;-79
2024/01/01 03:57:43;;;;;;;0.50;0.50;;;;;;;-142.06;100.00;64312.41;5053841;28;20247;-79
2024/01/01 04:00:11;;;;;;;0.47;0.47;;;;;;;-142.06;100.00;64312.41;5054141;28;20212;-78
2024/01/01 04:02:42;;;;;;;0.40;0.40;;;;;;;-142.06;100.00;64312.41;5036212;28;20315;-79
2024/01/01 04:05:11;;;;;;;0.30;0.30;;;;;;;-142.06;100.00;64312.41;5055220;28;20200;-82
2024/01/01 04:07:38;;;;;;;0.30;0.30;;;;;;;-142.06;100.00;64312.41;5053582;28;20201;-79
2024/01/01 04:10:06;;;;;;;0.33;0.30;;;;;;;-142.06;100.00;64312.41;5054893;28;20247;-80
2024/01/01 04:12:33;;;;;;;0.47;0.40;;;;;;;-142.06;100.00;64312.41;5051440;28;20196;-78
2024/01/01 04:15:00;;;;;;;0.40;0.30;;;;;;;-142.06;100.00;64312.41;5042412;28;20194;-79
2024/01/01 04:17:27;;;;;;;0.33;0.33;;;;;;;-142.06;100.00;64312.41;5052082;28;20193;-78
2024/01/01 04:19:54;;;;;;;0.97;0.20;;;;;;;-142.06;100.00;64312.41;5048427;28;20197;-79
2024/01/01 04:22:21;;;;;;;0.40;0.40;;;;;;;-142.06;100.00;64312.41;5054229;28;20271;-80
2024/01/01 04:24:52;;;;;;;0.30;0.30;;;;;;;-142.06;100.00;64312.41;5053747;28;20215;-80
2024/01/01 04:27:19;;;;;;;0.60;0.50;;;;;;;-142.06;100.00;64312.41;5054187;28;20209;-80
2024/01/01 04:29:46;;;;;;;0.90;0.30;;;;;;;-142.06;100.00;64312.41;5053435;28;20197;-77
2024/01/01 04:32:13;;;;;;;0.40;0.40;;;;;;;-142.06;100.00;64312.41;5054114;28;20743;-81
2024/01/01 04:34:40;;;;;;;0.40;0.40;;;;;;;-142.06;100.00;64312.41;5053335;28;21975;-79
2024/01/01 04:37:07;;;;;;;0.50;0.40;;;;;;;-142.06;100.00;64312.41;5050622;28;20249;-78
2024/01/01 04:39:34;;;;;;;0.60;0.40;;;;;;;-142.06;100.00;64312.41;5053990;28;20227;-79
2024/01/01 04:42:01;;;;;;;0.50;0.50;;;;;;;-142.06;100.00;64312.41;5052738;28;20778;-79
2024/01/01 04:44:29;;;;;;;0.73;0.40;;;;;;;-142.06;100.00;64312.41;5054036;28;20209;-78
2024/01/01 04:46:56;;;;;;;0.40;0.40;;;;;;;-142.06;100.00;64312.41;5056843;28;20202;-80
2024/01/01 04:49:23;;;;;;;0.60;0.60;;;;;;;-142.06;100.00;64312.41;5054121;28;20217;-79
2024/01/01 04:51:49;;;;;;;0.50;0.50;;;;;;;-142.06;100.00;64312.41;5052827;28;20542;-79
2024/01/01 04:54:16;;;;;;;0.57;0.50;;;;;;;-142.06;100.00;64312.41;5052499;28;20239;-79
2024/01/01 04:56:43;;;;;;;0.67;0.50;;;;;;;-142.06;100.00;64312.41;5052875;28;20193;-78
2024/01/01 04:59:10;;;;;;;0.50;0.40;;;;;;;-142.06;100.00;64312.41;5054933;28;20193;-77
2024/01/01 05:01:36;;;;;;;0.50;0.50;;;;;;;-142.06;100.00;64312.41;5053750;28;20189;-78
2024/01/01 05:04:03;;;;;;;0.40;0.40;;;;;;;-142.06;100.00;64312.41;5053872;28;20189;-78
2024/01/01 05:06:30;;;;;;;0.50;0.50;;;;;;;-142.06;100.00;64312.41;5054716;28;20677;-79
2024/01/01 05:08:57;;;;;;;0.77;0.63;;;;;;;-142.06;100.00;64312.41;5047426;28;20185;-79
2024/01/01 05:11:23;;;;;;;0.80;0.70;;;;;;;-142.06;100.00;64312.41;5050681;28;20201;-78
2024/01/01 05:13:50;;;;;;;0.60;0.60;;;;;;;-142.06;100.00;64312.41;5052553;28;20205;-78
2024/01/01 05:16:17;;;;;;;0.50;0.50;;;;;;;-142.06;100.00;64312.41;5053743;28;20205;-77
2024/01/01 05:18:44;;;;;;;0.50;0.50;;;;;;;-142.06;100.00;64312.41;5052326;28;20200;-79
2024/01/01 05:21:11;;;;;;;0.50;0.40;;;;;;;-142.06;100.00;64312.41;5058972;28;20234;-79
2024/01/01 05:23:38;;;;;;;0.50;0.50;;;;;;;-142.06;100.00;64312.41;5053112;28;20736;-78
2024/01/01 05:26:05;;;;;;;0.60;0.60;;;;;;;-142.06;100.00;64312.41;5053704;28;20197;-78
2024/01/01 05:28:31;;;;;;;1.03;0.70;;;;;;;-142.06;100.00;64312.41;5053269;28;20205;-79
2024/01/01 05:30:58;;;;;;;0.77;0.50;;;;;;;-142.06;100.00;64312.41;5053464;28;20193;-78
2024/01/01 05:33:25;;;;;;;0.30;0.27;;;;;;;-142.06;100.00;64312.41;5051957;28;20205;-80
2024/01/01 05:35:52;;;;;;;0.80;0.40;;;;;;;-142.06;100.00;64312.41;5053464;28;20202;-79
2024/01/01 05:38:19;;;;;;;0.57;0.40;;;;;;;-142.06;100.00;64312.41;5052478;28;20237;-77
2024/01/01 05:40:46;;;;;;;0.60;0.43;;;;;;;-142.06;100.00;64312.41;5052207;28;20189;-80
2024/01/01 05:43:14;;;;;;;0.30;0.30;;;;;;;-142.06;100.00;64312.41;5051603;28;20221;-79
2024/01/01 05:45:41;;;;;;;0.53;0.30;;;;;;;-142.06;100.00;64312.41;5053254;28;20201;-79
2024/01/01 05:48:07;;;;;;;0.40;0.30;;;;;;;-142.06;100.00;64312.41;5057658;28;20193;-79
2024/01/01 05:50:51;;;;;;;0.30;0.30;;;;;;;-142.06;100.00;64312.41;5052150;28;20279;-79
2024/01/01 05:53:18;;;;;;;0.27;0.27;;;;;;;-142.06;100.00;64312.41;5051552;28;20323;-79
2024/01/01 05:55:45;;;;;;;0.50;0.30;;;;;;;-142.06;100.00;64312.41;5052652;28;20217;-79
2024/01/01 05:58:12;;;;;;;0.33;0.30;;;;;;;-142.06;100.00;64312.41;5056108;28;20280;-80
2024/01/01 06:00:39;;;;;;;0.43;0.43;;;;;;;-142.06;100.00;64312.41;5052659;28;20693;-80
2024/01/01 06:03:06;;;;;;;0.43;0.40;;;;;;;-142.06;100.00;64312.41;5051013;28;20312;-78
2024/01/01 06:05:34;;;;;;;1.23;0.40;;;;;;;-142.06;100.00;64312.41;5048533;28;20216;-80
2024/01/01 06:08:02;;;;;;;0.50;0.37;;;;;;;-142.06;100.00;64312.41;5030708;28;20202;-80
2024/01/01 06:10:31;;;;;;;0.37;0.30;;;;;;;-142.06;100.00;64312.41;5073204;28;20222;-79
2024/01/01 06:12:58;;;;;;;0.57;0.30;;;;;;;-142.06;100.00;64312.41;5040426;28;20308;-79
2024/01/01 06:15:27;;;;;;;0.23;0.20;;;;;;;-142.06;100.00;64312.41;5053860;28;20193;-81
2024/01/01 06:17:53;;;;;;;0.50;0.30;;;;;;;-142.06;100.00;64312.41;5052547;28;20193;-80
2024/01/01 06:20:21;;;;;;;1.33;0.43;;;;;;;-142.06;100.00;64312.41;5052607;28;20251;-79
2024/01/01 06:22:47;;;;;;;0.83;0.50;;;;;;;-142.06;100.00;64312.41;5051180;28;20291;-80
2024/01/01 06:25:14;;;;;;;0.40;0.40;;;;;;;-142.06;100.00;64312.41;5052214;28;20662;-76
2024/01/01 06:27:41;;;;;;;0.73;0.53;;;;;;;-142.06;100.00;64312.41;5052436;28;20658;-77
2024/01/01 06:30:08;;;;;;;1.10;0.73;;;;;;;-142.06;100.00;64312.41;5033111;28;20198;-79
2024/01/01 06:32:35;;;;;;;1.90;1.10;;;;;;;-142.06;100.00;64312.41;5053165;28;20225;-79
2024/01/01 06:35:02;;;;;;;2.67;1.13;;;;;;;-142.06;100.00;64312.41;5034113;28;20198;-77
2024/01/01 06:37:29;;;;;;;2.17;1.23;;;;;;;-142.06;100.00;64312.41;5051427;28;20283;-79
2024/01/01 06:39:56;;;;;;;2.50;1.60;;;;;;;-142.06;100.00;64312.41;5051459;28;20219;-78
2024/01/01 06:42:23;;;;;;;2.70;1.53;;;;;;;-142.06;100.00;64312.41;5033270;28;20213;-79
2024/01/01 06:44:49;;;;;;;3.37;1.60;;;;;;;-142.06;100.00;64312.41;5051648;28;20206;-79
2024/01/01 06:47:16;;;;;;;1.83;1.40;;;;;;;-142.06;100.00;64312.41;5051709;28;20689;-79
2024/01/01 06:49:43;;;;;;;2.50;1.60;;;;;;;-142.06;100.00;64312.41;5051848;28;20202;-79
2024/01/01 06:52:10;;;;;;;2.57;1.80;;;;;;;-142.06;100.00;64312.41;5053088;28;20328;-80
2024/01/01 06:54:41;;;;;;;2.80;1.50;;;;;;;-142.06;100.00;64312.41;5051431;28;20205;-78
2024/01/01 06:57:08;;;;;;;1.83;1.40;;;;;;;-142.06;100.00;64312.41;5051356;28;20194;-79
2024/01/01 06:59:36;;;;;;;2.10;1.60;;;;;;;-142.06;100.00;64312.41;5050072;28;20198;-80
2024/01/01 07:02:03;;;;;;;2.00;1.50;;;;;;;-142.06;100.00;64312.41;5051245;28;20193;-81
2024/01/01 07:04:30;;;;;;;2.23;1.40;;;;;;;-142.06;100.00;64312.41;5048561;28;20217;-78
2024/01/01 07:06:57;;;;;;;1.93;1.20;;;;;;;-142.06;100.00;64312.41;5051575;28;20643;-79
2024/01/01 07:09:23;;;;;;;2.17;1.50;;;;;;;-142.06;100.00;64312.41;5049033;28;20235;-80
2024/01/01 07:11:51;;;;;;;1.60;1.20;;;;;;;-142.06;100.00;64312.41;5055674;28;20248;-79
2024/01/01 07:14:18;;;;;;;2.13;1.50;;;;;;;-142.06;100.00;64312.41;5049894;28;20189;-78
2024/01/01 07:16:45;;;;;;;1.70;1.23;;;;;;;-142.06;100.00;64312.41;5043186;28;20220;-79
2024/01/01 07:19:12;;;;;;;1.80;1.10;;;;;;;-142.06;100.00;64312.41;5050062;28;20201;-78
2024/01/01 07:21:40;;;;;;;1.90;1.50;;;;;;;-142.06;100.00;64312.41;5052541;28;20189;-78
2024/01/01 07:24:06;;;;;;;2.00;1.33;;;;;;;-142.06;100.00;64312.41;5051642;28;20240;-79
2024/01/01 07:26:33;;;;;;;2.57;1.43;;;;;;;-142.06;100.00;64312.41;5049782;28;20232;-79
2024/01/01 07:29:00;;;;;;;1.80;1.40;;;;;;;-142.06;100.00;64312.41;5051583;28;20201;-78
2024/01/01 07:31:27;;;;;;;1.77;1.40;;;;;;;-142.06;100.00;64312.41;5050829;28;20217;-79
2024/01/01 07:33:54;;;;;;;1.87;1.70;;;;;;;-142.06;100.00;64312.41;5051609;28;20200;-81
2024/01/01 07:36:22;;;;;;;2.40;1.57;;;;;;;-142.06;100.00;64312.41;5054954;28;20327;-81
2024/01/01 07:38:50;;;;;;;2.23;1.90;;;;;;;-142.06;100.00;64312.41;5051302;28;20233;-79
2024/01/01 07:41:17;;;;;;;2.63;1.83;;;;;;;-142.06;100.00;64312.41;5051288;28;20189;-79
2024/01/01 07:43:43;;;;;;;2.87;1.90;;;;;;;-142.06;100.00;64312.41;5017305;28;20221;-79
2024/01/01 07:46:10;;;;;;;2.60;2.10;;;;;;;-142.06;100.00;64312.41;5057001;28;20255;-79
2024/01/01 07:48:37;;;;;;;2.70;2.10;;;;;;;-142.06;100.00;64312.41;5055650;28;20208;-80
2024/01/01 07:51:04;;;;;;;2.80;1.93;;;;;;;-142.06;100.00;64312.41;5049880;28;20209;-80
2024/01/01 07:53:32;;;;;;;2.53;2.10;;;;;;;-142.06;100.00;64312.41;5050883;28;20666;-79
2024/01/01 07:56:04;;;;;;;3.73;2.10;;;;;;;-142.06;100.00;64312.41;5046122;28;20194;-82
2024/01/01 07:58:31;;;;;;;4.50;2.50;;;;;;;-142.06;100.00;64312.41;5043482;28;20703;-79
2024/01/01 08:00:58;;;;;;;3.20;2.33;;;;;;;-142.06;100.00;64312.41;5045490;28;20194;-79
2024/01/01 08:03:25;;;;;;;2.90;2.37;;;;;;;-142.06;100.00;64312.41;5048353;28;20434;-79
2024/01/01 08:05:53;;;;;;;3.57;2.50;;;;;;;-142.06;100.00;64312.41;5045547;28;20308;-78
2024/01/01 08:08:20;;;;;;;4.13;2.60;;;;;;;-142.06;100.00;64312.41;5050987;28;20197;-79
2024/01/01 08:10:47;;;;;;;3.97;2.77;;;;;;;-142.06;100.00;64312.41;5030539;28;20195;-77
2024/01/01 08:13:13;;;;;;;4.50;2.87;;;;;;;-142.06;100.00;64312.41;5016821;28;20761;-79
2024/01/01 08:15:40;;;;;;;3.43;2.93;;;;;;;-142.06;100.00;64312.41;5050876;28;20203;-79
2024/01/01 08:18:07;;;;;;;3.30;2.97;;;;;;;-142.06;100.00;64312.41;5051031;28;20209;-79
2024/01/01 08:20:35;;;;;;;4.03;3.23;;;;;;;-142.06;100.00;64312.41;5052682;28;20197;-80
2024/01/01 08:23:02;;;;;;;4.70;3.60;;;;;;;-142.06;100.00;64312.41;5053366;28;20216;-79
2024/01/01 08:25:29;;;;;;;3.90;3.20;;;;;;;-142.06;100.00;64312.41;5053246;28;20201;-80
2024/01/01 08:27:58;;;;;;;4.00;3.23;;;;;;;-142.06;100.00;64312.41;5056176;28;20194;-79
2024/01/01 08:30:24;;;;;;;4.00;3.17;;;;;;;-142.06;100.00;64312.41;5053449;28;20205;-81
2024/01/01 08:32:51;;;;;;;4.07;3.03;;;;;;;-142.06;100.00;64312.41;5057049;28;20213;-79
2024/01/01 08:35:18;;;;;;;4.77;3.00;;;;;;;-142.06;100.00;64312.41;5053826;28;20194;-79
2024/01/01 08:37:45;;;;;;;4.70;3.07;;;;;;;-142.06;100.00;64312.41;5051352;28;20348;-79
2024/01/01 08:40:12;;;;;;;3.60;2.97;;;;;;;-142.06;100.00;64312.41;5051133;28;20681;-79
2024/01/01 08:42:39;;;;;;;4.63;2.97;;;;;;;-142.06;100.00;64312.41;5062307;28;20195;-79
2024/01/01 08:45:06;;;;;;;3.40;2.80;;;;;;;-142.06;100.00;64312.41;5053280;28;20209;-79
2024/01/01 08:47:33;;;;;;;2.90;2.60;;;;;;;-142.06;100.00;64312.41;5052823;28;20201;-79
2024/01/01 08:50:00;;;;;;;4.40;3.10;;;;;;;-142.06;100.00;64312.41;5054466;28;20194;-79
2024/01/01 08:52:27;;;;;;;3.93;2.70;;;;;;;-142.06;100.00;64312.41;5045643;28;20360;-80
2024/01/01 08:54:54;;;;;;;4.40;3.17;;;;;;;-142.06;100.00;64312.41;5053983;28;20732;-78
2024/01/01 08:57:21;;;;;;;3.30;2.73;;;;;;;-142.06;100.00;64312.41;5036172;28;20201;-79
2024/01/01 08:59:47;;;;;;;4.73;3.20;;;;;;;-142.06;100.00;64312.41;5052833;28;20221;-80
2024/01/01 09:02:15;;;;;;;5.70;4.20;;;;;;;-142.06;100.00;64312.41;5023963;28;20201;-79
2024/01/01 09:04:42;;;;;;;4.60;2.90;;;;;;;-142.06;100.00;64312.41;5051275;28;20223;-79
2024/01/01 09:07:09;;;;;;;4.17;2.40;;;;;;;-142.06;100.00;64312.41;5048242;28;20196;-79
2024/01/01 09:09:37;;;;;;;4.13;3.03;;;;;;;-142.06;100.00;64312.41;5050407;28;20202;-80
2024/01/01 09:12:04;;;;;;;2.70;2.13;;;;;;;-142.06;100.00;64312.41;5050050;28;20189;-79
2024/01/01 09:14:31;;;;;;;3.47;2.20;;;;;;;-142.06;100.00;64312.41;5015470;28;20208;-80
2024/01/01 09:16:58;;;;;;;3.50;2.47;;;;;;;-142.06;100.00;64312.41;5045235;28;20716;-79
2024/01/01 09:19:25;;;;;;;3.70;2.23;;;;;;;-142.06;100.00;64312.41;5050956;28;20208;-79
2024/01/01 09:21:52;;;;;;;3.47;2.27;;;;;;;-142.06;100.00;64312.41;5038072;28;20194;-79
2024/01/01 09:24:18;;;;;;;2.33;1.80;;;;;;;-142.06;100.00;64312.41;5052801;28;20217;-78
2024/01/01 09:26:46;;;;;;;3.17;2.10;;;;;;;-142.06;100.00;64312.41;5035635;28;20201;-78
2024/01/01 09:29:13;;;;;;;3.37;2.33;;;;;;;-142.06;100.00;64312.41;5049388;28;20216;-78
2024/01/01 09:31:40;;;;;;;4.40;2.10;;;;;;;-142.06;100.00;64312.41;5029659;28;20229;-81
2024/01/01 09:34:07;;;;;;;4.73;2.57;;;;;;;-142.06;100.00;64312.41;5050467;28;20209;-79
2024/01/01 09:36:34;;;;;;;2.93;2.00;;;;;;;-142.06;100.00;64312.41;5048996;28;20227;-81
2024/01/01 09:39:14;;;;;;;4.47;2.00;;;;;;;-142.06;100.00;64312.41;5044654;28;20198;-79
2024/01/01 09:41:41;;;;;;;3.90;1.90;;;;;;;-142.06;100.00;64312.41;5050210;28;20194;-79
2024/01/01 09:44:11;;;;;;;3.00;2.03;;;;;;;-142.06;100.00;64312.41;5049427;28;20238;-79
2024/01/01 09:46:39;;;;;;;2.93;2.00;;;;;;;-142.06;100.00;64312.41;5052143;28;20208;-81
2024/01/01 09:49:07;;;;;;;2.93;1.83;;;;;;;-142.06;100.00;64312.41;5048552;28;20212;-79
2024/01/01 09:51:40;;;;;;;2.83;1.67;;;;;;;-142.06;100.00;64312.41;5050954;28;20194;-79
2024/01/01 09:54:07;;;;;;;3.97;1.87;;;;;;;-142.06;100.00;64312.41;5050711;28;20217;-78
2024/01/01 09:56:35;;;;;;;3.23;1.80;;;;;;;-142.06;100.00;64312.41;5052070;28;20204;-79
2024/01/01 09:59:02;;;;;;;2.50;1.90;;;;;;;-142.06;100.00;64312.41;5051511;28;20222;-80
2024/01/01 10:01:31;;;;;;;2.53;1.87;;;;;;;-142.06;100.00;64312.41;5050839;28;20188;-79
2024/01/01 10:04:09;;;;;;;3.03;1.70;;;;;;;-142.06;100.00;64312.41;5033628;28;20217;-78
2024/01/01 10:06:37;;;;;;;3.03;1.83;;;;;;;-142.06;100.00;64312.41;5051730;28;20189;-79
2024/01/01 10:09:06;;;;;;;2.20;1.77;;;;;;;-142.06;100.00;64312.41;5017188;28;20194;-82
2024/01/01 10:11:33;;;;;;;2.73;1.50;;;;;;;-142.06;100.00;64312.41;5033946;28;20198;-78
2024/01/01 10:14:03;;;;;;;2.97;1.57;;;;;;;-142.06;100.00;64312.41;5050160;28;20197;-79
2024/01/01 10:16:31;;;;;;;3.03;1.83;;;;;;;-142.06;100.00;64312.41;5050611;28;20193;-81
2024/01/01 10:19:01;;;;;;;3.07;1.83;;;;;;;-142.06;100.00;64312.41;5051400;28;20221;-79
2024/01/01 10:21:34;;;;;;;2.97;1.80;;;;;;;-142.06;100.00;64312.41;5050885;28;20193;-80
2024/01/01 10:24:16;;;;;;;2.57;1.53;;;;;;;-142.06;100.00;64312.41;5049288;28;20214;-80
2024/01/01 10:26:47;;;;;;;1.93;1.60;;;;;;;-142.06;100.00;64312.41;5051553;28;20224;-80
2024/01/01 10:29:15;;;;;;;2.27;1.77;;;;;;;-142.06;100.00;64312.41;5048560;28;20235;-79
2024/01/01 10:31:46;;;;;;;2.47;1.50;;;;;;;-142.06;100.00;64312.41;5049811;28;20221;-78
2024/01/01 10:34:15;;;;;;;2.40;1.37;;;;;;;-142.06;100.00;64312.41;5049299;28;20193;-79
2024/01/01 10:36:43;;;;;;;1.67;1.30;;;;;;;-142.06;100.00;64312.41;5032960;28;20193;-80
2024/01/01 10:39:10;;;;;;;3.87;1.07;;;;;;;-142.06;100.00;64312.41;5046916;28;20193;-79
2024/01/01 10:41:38;;;;;;;2.00;1.30;;;;;;;-142.06;100.00;64312.41;5045810;28;20194;-79
2024/01/01 10:44:09;;;;;;;1.27;1.10;;;;;;;-142.06;100.00;64312.41;5031629;28;20213;-81
2024/01/01 10:46:39;;;;;;;1.63;1.13;;;;;;;-142.06;100.00;64312.41;5048331;28;20199;-79
2024/01/01 10:49:11;;;;;;;1.60;1.03;;;;;;;-142.06;100.00;64312.41;5034925;28;20226;-80
2024/01/01 10:51:50;;;;;;;1.27;1.07;;;;;;;-142.06;100.00;64312.41;5014282;28;20220;-78
2024/01/01 10:54:36;;;;;;;1.13;1.00;;;;;;;-142.06;100.00;64312.41;5050819;28;20246;-80
2024/01/01 10:57:10;;;;;;;1.73;1.03;;;;;;;-142.06;100.00;64312.41;5047961;28;20247;-80
2024/01/01 10:59:46;;;;;;;1.77;0.80;;;;;;;-142.06;100.00;64312.41;5033529;28;20202;-80
2024/01/01 11:02:13;;;;;;;1.80;1.10;;;;;;;-142.06;100.00;64312.41;5032200;28;20727;-84
2024/01/01 11:04:40;;;;;;;1.47;0.93;;;;;;;-142.06;100.00;64312.41;5047086;28;20220;-78
2024/01/01 11:07:54;;;;;;;1.73;1.00;;;;;;;-142.06;100.00;64312.41;5036136;28;20212;-79
2024/01/01 11:10:39;;;;;;;2.53;1.20;;;;;;;-142.06;100.00;64312.41;5049342;28;20185;-80